Midland, Louisiana
Current Conditions -  °F | °C
As of 3:35 AM on Monday 24 Nov 2014 (Local Time) from K3R7 Reporting Station
Clear Clear  
Wind Chill: 59°   Ceiling: Unl
Heat Index: 59°   Visibility: 10mi
Dew Point: 57°   Wind: 6mph
Humidity: 93%   Direction: 280°W
Pressure: 29.78"   Gusts: NA
Location:  30.1362°N, 92.4618°W
Report Text: K3R7 240935Z AUTO 28005KT 10SM CLR 15/14 A2978 RMK AO2 T01500138
Loading
Personal Weather Stations






























Interactive Weather Map New forecast layout! Learn more

10-Day Weather Forecast

Advertisements
Track Severe Weather on mobile